createdAt,value
2023-05-17T00:00:28.578Z,99956.17
2023-05-17T00:01:31.049Z,99955.36
2023-05-17T00:02:33.844Z,99949.28
2023-05-17T00:03:36.282Z,99954.83
2023-05-17T00:04:39.257Z,99957.52
2023-05-17T00:05:41.808Z,99950.45
2023-05-17T00:06:44.553Z,99953.14
2023-05-17T00:07:47.293Z,99955.83
2023-05-17T00:08:49.763Z,99956.00
2023-05-17T00:09:52.504Z,99955.16
2023-05-17T00:10:55.311Z,99953.31
2023-05-17T00:11:57.716Z,99954.30
2023-05-17T00:13:00.519Z,99959.69
2023-05-17T00:14:03.718Z,99958.83
2023-05-17T00:15:06.556Z,99957.00
2023-05-17T00:16:09.881Z,99960.70
2023-05-17T00:17:13.475Z,99964.06
2023-05-17T00:18:15.884Z,99958.02
2023-05-17T00:19:18.889Z,99960.70
2023-05-17T00:20:21.859Z,99959.86
2023-05-17T00:21:24.204Z,99957.17
2023-05-17T00:22:26.657Z,99959.02
2023-05-17T00:23:29.051Z,99961.70
2023-05-17T00:24:31.461Z,99961.70
2023-05-17T00:25:33.949Z,99961.88
2023-05-17T00:26:36.576Z,99962.69
2023-05-17T00:27:38.965Z,99960.00
2023-05-17T00:28:41.811Z,99963.54
2023-05-17T00:29:44.458Z,99958.16
2023-05-17T00:30:47.242Z,99960.84
2023-05-17T00:31:49.673Z,99962.69
2023-05-17T00:32:53.134Z,99957.31
2023-05-17T00:33:55.709Z,99963.72
2023-05-17T00:34:58.243Z,99958.34
2023-05-17T00:36:00.954Z,99960.00
2023-05-17T00:37:03.416Z,99963.54
2023-05-17T00:38:05.772Z,99964.56
2023-05-17T00:39:08.609Z,99959.19
2023-05-17T00:40:13.254Z,99961.88
2023-05-17T00:41:15.762Z,99960.00
2023-05-17T00:42:18.783Z,99960.84
2023-05-17T00:43:21.156Z,99967.08
2023-05-17T00:44:23.513Z,99961.70
2023-05-17T00:45:26.007Z,99963.54
2023-05-17T00:46:28.488Z,99964.39
2023-05-17T00:47:30.935Z,99964.39
2023-05-17T00:48:33.666Z,99967.08
2023-05-17T00:49:36.352Z,99970.75
2023-05-17T00:50:39.214Z,99968.06
2023-05-17T00:51:41.537Z,99973.44
2023-05-17T00:52:46.152Z,99962.87
2023-05-17T00:53:49.705Z,99969.09
2023-05-17T00:54:52.680Z,99971.60
2023-05-17T00:55:55.355Z,99964.56
2023-05-17T00:56:58.956Z,99969.09
2023-05-17T00:58:02.095Z,99968.91
2023-05-17T00:59:06.372Z,99962.69
2023-05-17T01:00:12.037Z,99972.45
2023-05-17T01:01:14.636Z,99965.38
2023-05-17T01:02:18.821Z,99968.06
2023-05-17T01:03:21.301Z,99970.61
2023-05-17T01:04:24.425Z,99969.77
2023-05-17T01:05:27.572Z,99963.54
2023-05-17T01:06:31.814Z,99966.08
2023-05-17T01:07:34.083Z,99972.45
2023-05-17T01:08:36.981Z,99967.08
2023-05-17T01:09:39.834Z,99968.91
2023-05-17T01:11:12.940Z,99967.08
2023-05-17T01:12:25.072Z,99972.45
2023-05-17T01:13:33.845Z,99970.61
2023-05-17T01:14:49.261Z,99968.77
2023-05-17T01:15:55.305Z,99975.98
2023-05-17T01:17:16.820Z,99964.21
2023-05-17T01:18:26.353Z,99963.39
2023-05-17T01:21:42.143Z,99967.45
2023-05-17T01:23:05.406Z,99978.50
2023-05-17T01:24:14.502Z,99973.13
2023-05-17T01:26:50.892Z,99973.86
2023-05-17T01:27:55.729Z,99971.60
2023-05-17T01:28:59.648Z,99968.77
2023-05-17T01:30:02.512Z,99969.77
2023-05-17T01:31:05.970Z,99965.23
2023-05-17T01:32:08.579Z,99967.92
2023-05-17T01:33:12.179Z,99967.92
2023-05-17T01:34:24.954Z,99968.77
2023-05-17T01:35:27.800Z,99970.61
2023-05-17T01:36:30.806Z,99972.27
2023-05-17T01:37:33.541Z,99973.30
2023-05-17T01:38:35.960Z,99972.45
2023-05-17T01:39:38.385Z,99974.14
2023-05-17T01:40:47.925Z,99982.21
2023-05-17T01:43:12.332Z,99979.23
2023-05-17T01:45:46.817Z,99974.17
2023-05-17T01:46:50.788Z,99974.61
2023-05-17T01:48:12.192Z,99980.83
2023-05-17T01:49:32.405Z,99969.23
2023-05-17T01:50:35.650Z,99977.16
2023-05-17T01:51:57.637Z,99974.47
2023-05-17T01:53:02.795Z,99972.63
2023-05-17T01:54:06.324Z,99974.47
2023-05-17T01:55:24.669Z,99975.45
2023-05-17T01:56:30.219Z,99978.99
2023-05-17T01:57:35.565Z,99978.99
2023-05-17T01:58:48.121Z,99974.61
2023-05-17T01:59:52.071Z,99971.92
2023-05-17T02:00:56.592Z,99976.45
2023-05-17T02:02:01.056Z,99972.09
2023-05-17T02:03:04.896Z,99975.63
2023-05-17T02:04:08.026Z,99984.52
2023-05-17T02:05:11.748Z,99983.70
2023-05-17T02:06:18.001Z,99978.32
2023-05-17T02:07:20.493Z,99982.84
2023-05-17T02:08:22.825Z,99974.92
2023-05-17T02:09:26.827Z,99974.92
2023-05-17T02:10:29.518Z,99974.78
2023-05-17T02:11:31.957Z,99979.48
2023-05-17T02:12:34.361Z,99975.78
2023-05-17T02:13:36.756Z,99977.62
2023-05-17T02:14:39.317Z,99978.46
2023-05-17T02:15:41.779Z,99982.98
2023-05-17T02:16:44.507Z,99980.30
2023-05-17T02:17:48.367Z,99981.16
2023-05-17T02:18:51.294Z,99975.78
2023-05-17T02:19:53.802Z,99978.46
2023-05-17T02:20:56.690Z,99983.84
2023-05-17T02:21:59.211Z,99989.22
2023-05-17T02:23:01.561Z,99989.22
2023-05-17T02:24:04.427Z,99976.80
2023-05-17T02:25:08.451Z,99989.39
2023-05-17T02:26:11.644Z,99982.98
2023-05-17T02:27:14.576Z,99986.70
2023-05-17T02:28:17.051Z,99985.00
2023-05-17T02:29:19.506Z,99990.38
2023-05-17T02:30:22.008Z,99989.39
2023-05-17T02:31:24.428Z,99985.00
2023-05-17T02:32:27.751Z,99987.69
2023-05-17T02:33:30.356Z,99984.02
2023-05-17T02:34:33.455Z,99986.70
2023-05-17T02:35:35.939Z,99988.55
2023-05-17T02:36:38.940Z,99985.85
2023-05-17T02:37:41.481Z,99986.84
2023-05-17T02:38:44.435Z,99989.39
2023-05-17T02:39:48.456Z,99991.23
2023-05-17T02:40:51.138Z,99991.23
2023-05-17T02:41:53.569Z,99994.91
2023-05-17T02:42:56.432Z,99994.77
2023-05-17T02:43:58.826Z,99989.53
2023-05-17T02:45:03.530Z,99995.75
2023-05-17T02:46:06.335Z,99995.75
2023-05-17T02:47:08.780Z,100001.12
2023-05-17T02:48:11.293Z,99997.59
2023-05-17T02:49:14.307Z,99996.75
2023-05-17T02:50:16.966Z,100000.28
2023-05-17T02:51:19.420Z,99998.62
2023-05-17T02:52:21.827Z,99993.24
2023-05-17T02:53:24.360Z,99994.06
2023-05-17T02:54:27.431Z,100002.13
2023-05-17T02:55:31.702Z,100000.28
2023-05-17T02:56:34.225Z,100000.28
2023-05-17T02:57:36.653Z,100005.52
2023-05-17T02:58:39.059Z,100002.83
2023-05-17T02:59:41.487Z,100007.35
2023-05-17T03:00:47.412Z,100006.36
2023-05-17T03:01:50.686Z,100008.20
2023-05-17T03:02:53.359Z,100001.98
2023-05-17T03:03:55.931Z,100001.12
2023-05-17T03:04:58.735Z,100000.28
2023-05-17T03:06:02.446Z,100005.66
2023-05-17T03:07:07.086Z,100008.34
2023-05-17T03:08:10.709Z,100002.97
2023-05-17T03:09:13.328Z,100019.94
2023-05-17T03:10:17.114Z,100009.19
2023-05-17T03:11:20.885Z,100011.03
2023-05-17T03:12:23.682Z,100001.12
2023-05-17T03:13:26.191Z,100002.97
2023-05-17T03:14:28.550Z,100011.03
2023-05-17T03:15:31.123Z,100003.81
2023-05-17T03:16:34.073Z,100008.20
2023-05-17T03:17:36.997Z,100003.67
2023-05-17T03:18:40.831Z,100006.36
2023-05-17T03:19:43.551Z,100013.41
2023-05-17T03:20:45.931Z,100013.41
2023-05-17T03:21:48.961Z,100009.72
2023-05-17T03:22:51.396Z,100011.39
2023-05-17T03:23:55.353Z,100017.78
2023-05-17T03:24:58.908Z,100016.77
2023-05-17T03:26:01.854Z,100015.77
2023-05-17T03:27:06.104Z,100021.15
2023-05-17T03:28:08.570Z,100017.61
2023-05-17T03:29:11.362Z,100020.30
2023-05-17T03:30:15.604Z,100021.15
2023-05-17T03:31:19.218Z,100017.47
2023-05-17T03:32:22.200Z,100023.84
2023-05-17T03:33:24.813Z,100027.20
2023-05-17T03:34:27.672Z,100026.38
2023-05-17T03:35:30.638Z,100019.98
2023-05-17T03:36:38.506Z,100023.52
2023-05-17T03:37:41.257Z,100028.89
2023-05-17T03:38:44.514Z,100026.03
2023-05-17T03:39:47.377Z,100027.73
2023-05-17T03:40:51.616Z,100040.32
2023-05-17T03:41:54.890Z,100043.01
2023-05-17T03:42:59.282Z,100032.93
2023-05-17T03:44:02.962Z,100044.53
2023-05-17T03:45:07.737Z,100048.06
2023-05-17T03:46:12.106Z,100045.38
2023-05-17T03:47:14.532Z,100052.59
2023-05-17T03:48:16.909Z,100047.22
2023-05-17T03:49:32.937Z,100041.70
2023-05-17T03:50:36.394Z,100047.92
2023-05-17T03:53:00.008Z,100037.71
2023-05-17T03:54:02.876Z,100041.70
2023-05-17T03:55:06.895Z,100045.23
2023-05-17T03:56:10.839Z,100043.37
2023-05-17T03:57:13.330Z,100044.22
2023-05-17T03:58:15.979Z,100040.53
2023-05-17T03:59:18.496Z,100051.29
2023-05-17T04:00:23.252Z,100049.45
2023-05-17T04:01:27.449Z,100045.73
2023-05-17T04:02:30.988Z,100046.58
2023-05-17T04:03:33.474Z,100053.66
2023-05-17T04:04:35.918Z,100053.48
2023-05-17T04:05:40.007Z,100063.39
2023-05-17T04:06:42.470Z,100051.64
2023-05-17T04:07:44.883Z,100056.84
2023-05-17T04:08:48.500Z,100057.70
2023-05-17T04:09:52.140Z,100064.91
2023-05-17T04:10:55.536Z,100074.50
2023-05-17T04:11:59.012Z,100056.53
2023-05-17T04:13:02.916Z,100061.91
2023-05-17T04:14:05.348Z,100059.08
2023-05-17T04:15:08.283Z,100059.08
2023-05-17T04:16:13.341Z,100058.90
2023-05-17T04:17:17.077Z,100058.90
2023-05-17T04:18:20.764Z,100066.97
2023-05-17T04:19:23.678Z,100061.59
2023-05-17T04:20:26.578Z,100060.73
2023-05-17T04:21:30.176Z,100065.30
2023-05-17T04:22:33.132Z,100070.68
2023-05-17T04:24:47.223Z,100062.33
2023-05-17T04:25:50.556Z,100059.92
2023-05-17T04:26:53.514Z,100067.81
2023-05-17T04:27:58.283Z,100063.11
2023-05-17T04:29:00.699Z,100072.03
2023-05-17T04:30:05.097Z,100068.34
2023-05-17T04:31:07.989Z,100066.33
2023-05-17T04:32:10.592Z,100066.16
2023-05-17T04:33:14.586Z,100069.69
2023-05-17T04:34:19.321Z,100078.47
2023-05-17T04:35:22.367Z,100068.52
2023-05-17T04:36:26.871Z,100074.75
2023-05-17T04:37:31.230Z,100079.81
2023-05-17T04:38:36.860Z,100070.05
2023-05-17T04:39:40.693Z,100076.27
2023-05-17T04:40:43.651Z,100078.82
2023-05-17T04:41:47.307Z,100074.26
2023-05-17T04:42:50.701Z,100071.56
2023-05-17T04:43:53.073Z,100074.96
2023-05-17T04:44:57.643Z,100072.09
2023-05-17T04:46:01.683Z,100074.64
2023-05-17T04:47:04.971Z,100082.53
2023-05-17T04:48:07.540Z,100074.32
2023-05-17T04:49:11.321Z,100077.69
2023-05-17T04:50:15.637Z,100083.77
2023-05-17T04:51:20.035Z,100076.55
2023-05-17T04:52:22.874Z,100086.28
2023-05-17T04:53:25.862Z,100079.91
2023-05-17T04:54:28.233Z,100078.06
2023-05-17T04:55:32.300Z,100077.89
2023-05-17T04:56:35.683Z,100083.12
2023-05-17T04:57:39.252Z,100075.91
2023-05-17T04:58:43.553Z,100090.03
2023-05-17T04:59:46.404Z,100086.34
2023-05-17T05:00:50.992Z,100082.81
2023-05-17T05:01:53.550Z,100082.81
2023-05-17T05:02:55.929Z,100084.47
2023-05-17T05:03:58.817Z,100094.24
2023-05-17T05:05:02.384Z,100089.70
2023-05-17T05:06:05.518Z,100088.53
2023-05-17T05:07:08.569Z,100088.36
2023-05-17T05:08:11.721Z,100093.59
2023-05-17T05:09:14.532Z,100099.65
2023-05-17T05:10:17.065Z,100095.78
2023-05-17T05:11:19.533Z,100094.80
2023-05-17T05:12:22.604Z,100093.77
2023-05-17T05:13:25.060Z,100092.59
2023-05-17T05:14:28.419Z,100100.52
2023-05-17T05:15:32.089Z,100094.14
2023-05-17T05:16:36.093Z,100097.51
2023-05-17T05:17:38.813Z,100097.33
2023-05-17T05:18:41.808Z,100100.69
2023-05-17T05:19:44.679Z,100090.63
2023-05-17T05:20:48.728Z,100098.52
2023-05-17T05:21:51.588Z,100093.98
2023-05-17T05:22:54.455Z,100098.20
2023-05-17T05:23:57.297Z,100102.41
2023-05-17T05:25:01.020Z,100104.11
2023-05-17T05:26:04.382Z,100103.93
2023-05-17T05:27:07.586Z,100101.94
2023-05-17T05:28:11.144Z,100100.77
2023-05-17T05:29:14.387Z,100107.66
2023-05-17T05:30:17.413Z,100104.80
2023-05-17T05:31:20.408Z,100104.64
2023-05-17T05:32:24.797Z,100094.55
2023-05-17T05:33:27.430Z,100104.14
2023-05-17T05:34:32.017Z,100103.95
2023-05-17T05:35:35.027Z,100103.62
2023-05-17T05:36:40.653Z,100108.88
2023-05-17T05:37:45.515Z,100102.31
2023-05-17T05:38:48.930Z,100108.36
2023-05-17T05:39:51.518Z,100112.57
2023-05-17T05:40:56.389Z,100113.23
2023-05-17T05:41:58.859Z,100113.94
2023-05-17T05:43:01.674Z,100117.30
2023-05-17T05:44:05.095Z,100108.04
2023-05-17T05:45:09.206Z,100114.77
2023-05-17T05:46:12.706Z,100113.77
2023-05-17T05:47:16.487Z,100116.31
2023-05-17T05:48:19.525Z,100118.85
2023-05-17T05:49:22.084Z,100113.14
2023-05-17T05:50:24.503Z,100122.73
2023-05-17T05:51:28.798Z,100121.55
2023-05-17T05:52:32.126Z,100125.77
2023-05-17T05:53:34.620Z,100131.00
2023-05-17T05:54:37.136Z,100125.25
2023-05-17T05:55:42.307Z,100127.61
2023-05-17T05:56:45.964Z,100119.38
2023-05-17T05:57:49.523Z,100128.98
2023-05-17T05:58:52.327Z,100125.28
2023-05-17T05:59:55.090Z,100125.09
2023-05-17T06:00:58.283Z,100123.92
2023-05-17T06:02:00.678Z,100123.73
2023-05-17T06:03:04.204Z,100127.97
2023-05-17T06:04:06.763Z,100134.88
2023-05-17T06:05:09.710Z,100125.76
2023-05-17T06:06:13.107Z,100126.45
2023-05-17T06:07:15.593Z,100125.28
2023-05-17T06:08:18.039Z,100124.09
2023-05-17T06:09:20.472Z,100133.69
2023-05-17T06:10:22.973Z,100129.81
2023-05-17T06:11:25.737Z,100131.33
2023-05-17T06:12:28.153Z,100125.59
2023-05-17T06:13:30.900Z,100123.56
2023-05-17T06:14:33.229Z,100115.31
2023-05-17T06:15:35.617Z,100123.04
2023-05-17T06:16:38.129Z,100124.55
2023-05-17T06:17:40.654Z,100128.94
2023-05-17T06:18:43.365Z,100128.78
2023-05-17T06:19:46.337Z,100130.30
2023-05-17T06:20:51.978Z,100123.02
2023-05-17T06:21:55.114Z,100130.77
2023-05-17T06:22:57.616Z,100128.59
2023-05-17T06:24:01.807Z,100130.28
2023-05-17T06:25:05.697Z,100130.09
2023-05-17T06:26:08.759Z,100130.76
2023-05-17T06:27:11.104Z,100132.27
2023-05-17T06:28:13.540Z,100133.81
2023-05-17T06:29:15.981Z,100133.62
2023-05-17T06:30:19.047Z,100143.10
2023-05-17T06:31:21.500Z,100138.37
2023-05-17T06:32:26.962Z,100138.03
2023-05-17T06:33:29.473Z,100138.69
2023-05-17T06:34:31.708Z,100139.19
2023-05-17T06:35:47.612Z,100128.21
2023-05-17T06:36:40.787Z,100133.45
2023-05-17T06:37:43.993Z,100140.17
2023-05-17T06:38:46.452Z,100140.02
2023-05-17T06:39:59.623Z,100133.42
2023-05-17T06:40:56.459Z,100132.23
2023-05-17T06:41:59.923Z,100136.25
2023-05-17T06:43:02.764Z,100137.95
2023-05-17T06:44:05.180Z,100135.91
2023-05-17T06:45:08.741Z,100138.45
2023-05-17T06:46:11.774Z,100132.67
2023-05-17T06:47:14.181Z,100139.61
2023-05-17T06:48:16.858Z,100137.56
2023-05-17T06:49:20.344Z,100134.52
2023-05-17T06:50:23.285Z,100138.53
2023-05-17T06:51:25.637Z,100128.39
2023-05-17T06:52:28.080Z,100136.14
2023-05-17T06:53:31.510Z,100135.80
2023-05-17T06:54:34.012Z,100140.84
2023-05-17T06:55:36.429Z,100144.05
2023-05-17T06:56:39.290Z,100136.61
2023-05-17T06:57:41.734Z,100137.10
2023-05-17T06:58:44.083Z,100137.76
2023-05-17T06:59:47.316Z,100134.70
2023-05-17T07:00:50.187Z,100141.61
2023-05-17T07:01:53.201Z,100136.55
2023-05-17T07:02:55.716Z,100136.20
2023-05-17T07:03:59.735Z,100132.95
2023-05-17T07:05:05.394Z,100128.89
2023-05-17T07:06:08.843Z,100138.98
2023-05-17T07:07:11.254Z,100137.59
2023-05-17T07:08:13.571Z,100129.78
2023-05-17T07:09:16.403Z,100133.47
2023-05-17T07:10:19.083Z,100142.72
2023-05-17T07:11:21.496Z,100132.20
2023-05-17T07:12:23.828Z,100128.78
2023-05-17T07:13:28.349Z,100127.88
2023-05-17T07:14:31.011Z,100125.94
2023-05-17T07:15:33.792Z,100137.53
2023-05-17T07:16:36.425Z,100134.79
2023-05-17T07:17:38.915Z,100130.31
2023-05-17T07:18:41.583Z,100131.92
2023-05-17T07:19:46.014Z,100127.45
2023-05-17T07:20:49.087Z,100129.89
2023-05-17T07:21:52.219Z,100131.67
2023-05-17T07:22:54.734Z,100128.67
2023-05-17T07:23:57.157Z,100134.02
2023-05-17T07:24:59.592Z,100137.45
2023-05-17T07:26:02.221Z,100131.80
2023-05-17T07:27:05.952Z,100129.63
2023-05-17T07:28:11.783Z,100132.87
2023-05-17T07:29:14.176Z,100138.01
2023-05-17T07:30:17.255Z,100127.05
2023-05-17T07:31:19.679Z,100135.06
2023-05-17T07:32:21.986Z,100140.38
2023-05-17T07:33:24.350Z,100140.89
2023-05-17T07:34:27.326Z,100136.43
2023-05-17T07:35:30.017Z,100139.02
2023-05-17T07:36:32.851Z,100130.75
2023-05-17T07:37:35.323Z,100128.93
2023-05-17T07:38:38.222Z,100142.56
2023-05-17T07:39:40.677Z,100139.92
2023-05-17T07:40:46.471Z,100136.62
2023-05-17T07:42:00.138Z,100139.58
2023-05-17T07:43:04.739Z,100133.55
2023-05-17T07:44:08.960Z,100137.36
2023-05-17T07:45:12.374Z,100139.30
2023-05-17T07:46:19.307Z,100133.27
2023-05-17T07:47:21.765Z,100139.99
2023-05-17T07:48:24.298Z,100138.61
2023-05-17T07:49:27.633Z,100143.22
2023-05-17T07:50:30.465Z,100130.95
2023-05-17T07:51:33.689Z,100139.33
2023-05-17T07:52:36.608Z,100136.00
2023-05-17T07:53:43.560Z,100141.05
2023-05-17T07:55:55.475Z,100148.03
2023-05-17T07:56:57.989Z,100141.09
2023-05-17T07:58:00.785Z,100143.59
2023-05-17T07:59:04.196Z,100148.19
2023-05-17T08:00:08.345Z,100147.16
2023-05-17T08:01:20.609Z,100143.59
2023-05-17T08:02:22.944Z,100144.45
2023-05-17T08:04:36.721Z,100148.69
2023-05-17T08:05:40.752Z,100145.69
2023-05-17T08:06:45.095Z,100150.27
2023-05-17T08:07:48.719Z,100144.20
2023-05-17T08:08:51.891Z,100151.51
2023-05-17T08:09:58.931Z,100149.01
2023-05-17T08:11:02.005Z,100152.75
2023-05-17T08:12:05.374Z,100149.41
2023-05-17T08:13:09.213Z,100157.73
2023-05-17T08:14:16.814Z,100158.97
2023-05-17T08:15:19.525Z,100156.47
2023-05-17T08:16:22.957Z,100145.78
2023-05-17T08:17:25.878Z,100150.40
2023-05-17T08:19:44.113Z,100149.58
2023-05-17T08:20:46.931Z,100153.23
2023-05-17T08:21:49.399Z,100145.30
2023-05-17T08:22:53.524Z,100145.52
2023-05-17T08:25:12.589Z,100147.23
2023-05-17T08:26:20.148Z,100158.00
2023-05-17T08:27:24.113Z,100149.02
2023-05-17T08:28:27.005Z,100147.50
2023-05-17T08:29:29.413Z,100156.66
2023-05-17T08:30:32.082Z,100152.27
2023-05-17T08:31:34.806Z,100154.98
2023-05-17T08:32:38.065Z,100152.47
2023-05-17T08:33:42.809Z,100153.50
2023-05-17T08:34:45.726Z,100146.20
2023-05-17T08:35:50.084Z,100150.61
2023-05-17T08:36:53.819Z,100143.48
2023-05-17T08:37:57.582Z,100150.61
2023-05-17T08:39:09.184Z,100154.98
2023-05-17T08:40:13.742Z,100150.39
2023-05-17T08:41:16.587Z,100155.64
2023-05-17T08:42:23.778Z,100144.78
2023-05-17T08:43:27.921Z,100149.02
2023-05-17T08:44:32.903Z,100151.73
2023-05-17T08:45:35.357Z,100143.58
2023-05-17T08:46:38.890Z,100144.42
2023-05-17T08:47:43.199Z,100142.53
2023-05-17T08:48:48.214Z,100144.22
2023-05-17T08:49:51.557Z,100157.79
2023-05-17T08:50:55.717Z,100168.47
2023-05-17T08:51:59.895Z,100148.63
2023-05-17T08:53:02.641Z,100156.77
2023-05-17T08:54:05.908Z,100158.42
2023-05-17T08:55:08.970Z,100148.63
2023-05-17T08:56:15.239Z,100155.92
2023-05-17T08:57:21.096Z,100154.05
2023-05-17T08:58:27.888Z,100151.52
2023-05-17T08:59:30.615Z,100149.86
2023-05-17T09:00:33.421Z,100155.08
2023-05-17T09:01:38.999Z,100160.71
2023-05-17T09:02:42.356Z,100152.57
2023-05-17T09:05:01.095Z,100163.91
2023-05-17T09:06:10.792Z,100157.30
2023-05-17T09:07:14.621Z,100157.52
2023-05-17T09:08:22.136Z,100149.16
2023-05-17T09:09:26.189Z,100152.08
2023-05-17T09:10:30.913Z,100155.64
2023-05-17T09:11:34.126Z,100156.66
2023-05-17T09:12:38.300Z,100147.68
2023-05-17T09:13:44.027Z,100159.38
2023-05-17T09:14:49.126Z,100153.95
2023-05-17T09:15:51.590Z,100169.39
2023-05-17T09:16:57.299Z,100166.68
2023-05-17T09:18:00.367Z,100159.59
2023-05-17T09:19:06.104Z,100154.98
2023-05-17T09:20:10.554Z,100160.41
2023-05-17T09:21:13.943Z,100163.13
2023-05-17T09:22:19.342Z,100160.62
2023-05-17T09:23:21.802Z,100156.21
2023-05-17T09:24:28.934Z,100166.25
2023-05-17T09:25:38.275Z,100156.42
2023-05-17T09:26:43.975Z,100169.99
2023-05-17T09:27:46.460Z,100155.78
2023-05-17T09:29:58.772Z,100163.97
2023-05-17T09:31:06.355Z,100165.55
2023-05-17T09:32:18.913Z,100167.59
2023-05-17T09:33:22.419Z,100164.07
2023-05-17T09:34:24.877Z,100166.11
2023-05-17T09:35:49.523Z,100161.74
2023-05-17T09:36:52.244Z,100165.69
2023-05-17T09:39:09.117Z,100171.16
2023-05-17T09:41:30.258Z,100163.79
2023-05-17T09:42:34.821Z,100167.23
2023-05-17T09:43:39.051Z,100165.54
2023-05-17T09:44:50.113Z,100167.44
2023-05-17T09:45:56.692Z,100165.11
2023-05-17T09:46:59.640Z,100155.28
2023-05-17T09:48:16.477Z,100164.44
2023-05-17T09:49:20.448Z,100159.44
2023-05-17T09:50:26.097Z,100165.87
2023-05-17T09:51:40.072Z,100159.61
2023-05-17T09:52:42.549Z,100163.38
2023-05-17T09:53:44.926Z,100161.69
2023-05-17T09:56:10.527Z,100152.57
2023-05-17T09:57:13.525Z,100153.09
2023-05-17T09:58:16.408Z,100156.85
2023-05-17T09:59:19.909Z,100149.52
2023-05-17T10:00:22.998Z,100148.72
2023-05-17T10:01:28.134Z,100151.42
2023-05-17T10:02:31.988Z,100143.29
2023-05-17T10:03:36.499Z,100146.00
2023-05-17T10:04:39.777Z,100148.89
2023-05-17T10:06:53.972Z,100155.66
2023-05-17T10:07:58.511Z,100151.60
2023-05-17T10:09:04.097Z,100149.73
2023-05-17T10:10:10.291Z,100157.66
2023-05-17T10:11:13.342Z,100146.81
2023-05-17T10:12:17.209Z,100153.09
2023-05-17T10:13:24.126Z,100150.20
2023-05-17T10:14:29.911Z,100151.01
2023-05-17T10:15:33.036Z,100158.34
2023-05-17T10:16:37.218Z,100146.64
2023-05-17T10:17:41.788Z,100157.48
2023-05-17T10:18:46.382Z,100153.72
2023-05-17T10:19:49.974Z,100153.72
2023-05-17T10:20:52.899Z,100151.01
2023-05-17T10:22:02.315Z,100151.01
2023-05-17T10:23:02.292Z,100148.30
2023-05-17T10:24:05.960Z,100149.98
2023-05-17T10:25:10.379Z,100154.57
2023-05-17T10:26:17.037Z,100146.43
2023-05-17T10:27:20.330Z,100147.28
2023-05-17T10:28:23.016Z,100150.84
2023-05-17T10:29:25.950Z,100156.26
2023-05-17T10:30:28.953Z,100141.85
2023-05-17T10:31:33.128Z,100144.56
2023-05-17T10:32:36.922Z,100155.23
2023-05-17T10:33:40.111Z,100144.39
2023-05-17T10:34:43.508Z,100145.20
2023-05-17T10:35:47.190Z,100147.91
2023-05-17T10:36:49.664Z,100148.76
2023-05-17T10:37:52.087Z,100143.33
2023-05-17T10:38:55.249Z,100150.62
2023-05-17T10:39:58.834Z,100146.05
2023-05-17T10:41:02.405Z,100152.31
2023-05-17T10:43:13.406Z,100145.03
2023-05-17T10:44:16.528Z,100150.45
2023-05-17T10:45:24.156Z,100153.16
2023-05-17T10:46:29.232Z,100149.61
2023-05-17T10:47:32.719Z,100144.18
2023-05-17T10:48:36.526Z,100147.10
2023-05-17T10:49:39.178Z,100157.11
2023-05-17T10:50:54.113Z,100148.13
2023-05-17T10:51:46.028Z,100153.55
2023-05-17T10:52:49.051Z,100151.86
2023-05-17T10:54:14.165Z,100151.01
2023-05-17T10:55:24.388Z,100148.30
2023-05-17T10:56:27.976Z,100145.59
2023-05-17T10:59:55.214Z,100139.01
2023-05-17T11:00:57.972Z,100147.87
2023-05-17T11:02:07.005Z,100148.72
2023-05-17T11:03:27.353Z,100144.31
2023-05-17T11:04:39.573Z,100144.31
2023-05-17T11:08:15.159Z,100138.13
2023-05-17T11:10:35.565Z,100143.72
2023-05-17T11:12:50.950Z,100147.28
2023-05-17T11:13:55.571Z,100149.66
2023-05-17T11:14:58.295Z,100144.23
2023-05-17T11:17:18.937Z,100149.14
2023-05-17T11:18:30.066Z,100150.50
2023-05-17T11:19:25.566Z,100155.92
2023-05-17T11:20:31.696Z,100144.05
2023-05-17T11:21:34.501Z,100157.62
2023-05-17T11:22:39.321Z,100143.84
2023-05-17T11:24:56.650Z,100135.20
2023-05-17T11:26:15.251Z,100144.70
2023-05-17T11:27:08.484Z,100140.12
2023-05-17T11:28:21.089Z,100142.63
2023-05-17T11:29:27.043Z,100142.63
2023-05-17T11:30:31.586Z,100145.33
2023-05-17T11:31:35.876Z,100143.47
2023-05-17T11:32:38.161Z,100145.33
2023-05-17T11:34:54.708Z,100145.59
2023-05-17T11:35:57.074Z,100146.52
2023-05-17T11:36:59.290Z,100135.84
2023-05-17T11:38:22.577Z,100139.78
2023-05-17T11:39:25.070Z,100140.12
2023-05-17T11:40:30.274Z,100138.64
2023-05-17T11:41:35.692Z,100141.09
2023-05-17T11:42:39.551Z,100143.17
2023-05-17T11:43:54.563Z,100138.77
2023-05-17T11:44:57.798Z,100139.15
2023-05-17T11:47:09.667Z,100140.52
2023-05-17T11:48:16.688Z,100133.26
2023-05-17T11:49:34.032Z,100142.23
2023-05-17T11:50:25.915Z,100143.29
2023-05-17T11:52:40.392Z,100131.48
2023-05-17T11:53:43.787Z,100133.20
2023-05-17T11:54:46.458Z,100139.64
2023-05-17T11:57:05.509Z,100133.73
2023-05-17T11:58:09.831Z,100137.98
2023-05-17T12:00:32.177Z,100132.23
2023-05-17T12:01:47.796Z,100130.41
2023-05-17T12:02:50.549Z,100131.45
2023-05-17T12:03:56.629Z,100134.16
2023-05-17T12:04:59.006Z,100135.66
2023-05-17T12:06:07.281Z,100130.23
2023-05-17T12:07:10.567Z,100125.83
2023-05-17T12:08:21.742Z,100129.56
2023-05-17T12:09:24.052Z,100131.08
2023-05-17T12:10:27.060Z,100122.95
2023-05-17T12:11:29.771Z,100131.08
2023-05-17T12:12:35.069Z,100129.39
2023-05-17T12:13:38.539Z,100126.84
2023-05-17T12:14:43.284Z,100127.90
2023-05-17T12:15:56.161Z,100128.08
2023-05-17T12:16:59.346Z,100123.50
2023-05-17T12:18:04.598Z,100118.92
2023-05-17T12:20:34.996Z,100115.08
2023-05-17T12:21:38.198Z,100113.03
2023-05-17T12:24:05.244Z,100115.45
2023-05-17T12:25:11.255Z,100118.02
2023-05-17T12:26:16.048Z,100109.69
2023-05-17T12:28:41.212Z,100109.19
2023-05-17T12:29:43.558Z,100110.53
2023-05-17T12:30:46.374Z,100113.03
2023-05-17T12:31:50.566Z,100111.00
2023-05-17T12:32:53.006Z,100106.39
2023-05-17T12:33:56.519Z,100101.65
2023-05-17T12:34:59.542Z,100101.65
2023-05-17T12:36:03.640Z,100103.51
2023-05-17T12:37:07.036Z,100100.80
2023-05-17T12:38:09.875Z,100098.09
2023-05-17T12:39:14.630Z,100102.46
2023-05-17T12:40:18.108Z,100097.04
2023-05-17T12:41:20.736Z,100088.91
2023-05-17T12:42:23.438Z,100096.86
2023-05-17T12:43:25.993Z,100099.37
2023-05-17T12:45:47.815Z,100087.85
2023-05-17T12:46:50.279Z,100094.41
2023-05-17T12:47:53.813Z,100097.97
2023-05-17T12:48:59.653Z,100094.24
2023-05-17T12:50:02.807Z,100092.17
2023-05-17T12:51:21.920Z,100082.98
2023-05-17T12:52:24.468Z,100101.95
2023-05-17T12:53:30.859Z,100089.08
2023-05-17T12:54:33.292Z,100098.87
2023-05-17T12:56:49.043Z,100090.86
2023-05-17T12:57:52.833Z,100103.06
2023-05-17T12:59:13.495Z,100091.20
2023-05-17T13:00:18.445Z,100093.70
2023-05-17T13:01:21.085Z,100089.97